Time;durP1;ratioP1;P1;durP2;ratioP2;P2;SDS_P1;SDS_P2;PMS_P1;PMS_P2;Temp;Humidity;BMP_temperature;BMP_pressure;BME280_temperature;BME280_humidity;BME280_pressure;Samples;Min_cycle;Max_cycle;Signal;HPM_P1;HPM_P2
2021/04/04 00:01:36;;;;;;;14.93;2.85;;;7.60;81.30;;;;;;5155872;27;20067;-81
2021/04/04 00:04:02;;;;;;;12.23;2.78;;;7.60;81.00;;;;;;5156744;27;20378;-81
2021/04/04 00:06:28;;;;;;;19.80;3.30;;;7.60;82.00;;;;;;5155695;27;20047;-81
2021/04/04 00:08:53;;;;;;;14.20;3.17;;;7.60;82.60;;;;;;5156223;27;20065;-81
2021/04/04 00:11:19;;;;;;;14.15;2.78;;;7.60;82.40;;;;;;5156837;27;20410;-81
2021/04/04 00:13:45;;;;;;;13.43;2.90;;;7.60;82.50;;;;;;5155312;27;20417;-81
2021/04/04 00:16:10;;;;;;;14.90;3.20;;;7.60;82.90;;;;;;5156167;27;20062;-81
2021/04/04 00:18:36;;;;;;;20.13;3.10;;;7.60;82.50;;;;;;5155864;27;20073;-81
2021/04/04 00:21:02;;;;;;;13.23;2.88;;;7.60;81.90;;;;;;5156298;27;20890;-81
2021/04/04 00:23:29;;;;;;;13.73;3.03;;;7.60;82.00;;;;;;5156270;27;20402;-81
2021/04/04 00:25:54;;;;;;;14.10;2.95;;;7.60;82.10;;;;;;5155237;27;20047;-80
2021/04/04 00:28:20;;;;;;;12.43;2.28;;;7.60;82.00;;;;;;5156313;27;20451;-81
2021/04/04 00:30:46;;;;;;;11.27;2.53;;;7.60;82.00;;;;;;5155839;27;20076;-81
2021/04/04 00:33:11;;;;;;;16.08;3.00;;;7.60;82.30;;;;;;5155561;27;20052;-80
2021/04/04 00:35:37;;;;;;;16.70;3.30;;;7.60;82.50;;;;;;5156494;27;20057;-81
2021/04/04 00:38:03;;;;;;;13.05;2.90;;;7.60;82.00;;;;;;5155969;27;20073;-80
2021/04/04 00:40:32;;;;;;;10.13;2.47;;;7.60;82.40;;;;;;5155299;27;20375;-80
2021/04/04 00:42:59;;;;;;;11.20;2.58;;;7.60;83.20;;;;;;5138594;27;20045;-80
2021/04/04 00:45:34;;;;;;;13.20;2.17;;;7.60;83.20;;;;;;5156114;27;20050;-80
2021/04/04 00:47:59;;;;;;;12.50;2.80;;;7.60;82.90;;;;;;5154918;27;20043;-80
2021/04/04 00:50:28;;;;;;;14.48;2.83;;;7.60;83.10;;;;;;5135399;27;20096;-80
2021/04/04 00:52:55;;;;;;;16.63;2.70;;;7.60;83.70;;;;;;5151478;27;20397;-80
2021/04/04 00:55:22;;;;;;;17.98;2.60;;;7.60;83.30;;;;;;5154233;27;20043;-80
2021/04/04 00:57:49;;;;;;;13.10;2.33;;;7.60;82.70;;;;;;5155322;27;20035;-80
2021/04/04 01:00:20;;;;;;;12.00;2.78;;;7.60;82.70;;;;;;5155757;27;20169;-80
2021/04/04 01:02:46;;;;;;;13.25;2.70;;;7.60;83.40;;;;;;5154216;27;20039;-80
2021/04/04 01:05:16;;;;;;;9.35;2.20;;;7.60;83.80;;;;;;5155545;27;20104;-81
2021/04/04 01:07:44;;;;;;;13.35;2.72;;;7.60;83.20;;;;;;5154840;27;20039;-80
2021/04/04 01:10:11;;;;;;;12.02;2.58;;;7.60;83.20;;;;;;5155540;27;20050;-80
2021/04/04 01:12:46;;;;;;;11.82;2.60;;;7.60;83.70;;;;;;5155374;27;20502;-80
2021/04/04 01:15:23;;;;;;;10.15;2.33;;;7.60;83.70;;;;;;5154107;27;20054;-80
2021/04/04 01:17:52;;;;;;;12.77;2.30;;;7.60;83.10;;;;;;5154590;27;20038;-80
2021/04/04 01:20:31;;;;;;;10.70;2.38;;;7.50;83.20;;;;;;5155200;27;20133;-80
2021/04/04 01:23:27;;;;;;;8.15;2.17;;;7.50;82.80;;;;;;5153783;27;20443;-80
2021/04/04 01:26:26;;;;;;;15.05;2.60;;;7.50;82.50;;;;;;5155187;27;20046;-80
2021/04/04 01:28:53;;;;;;;11.25;2.33;;;7.50;82.60;;;;;;5111398;27;20099;-80
2021/04/04 01:31:21;;;;;;;11.77;2.60;;;7.50;82.70;;;;;;5150873;27;20055;-80
2021/04/04 01:33:52;;;;;;;16.42;2.60;;;7.50;82.80;;;;;;5154925;27;20068;-80
2021/04/04 01:36:19;;;;;;;13.55;2.30;;;7.50;83.10;;;;;;5154470;27;20405;-80
2021/04/04 01:38:45;;;;;;;13.25;2.55;;;7.40;83.00;;;;;;5154279;27;20546;-80
2021/04/04 01:41:26;;;;;;;11.07;1.90;;;7.40;83.20;;;;;;5155224;27;20047;-81
2021/04/04 01:44:00;;;;;;;9.70;2.20;;;7.40;82.80;;;;;;5153734;27;20134;-80
2021/04/04 01:46:26;;;;;;;16.27;2.75;;;7.40;83.20;;;;;;5155246;27;20054;-81
2021/04/04 01:48:54;;;;;;;13.98;2.45;;;7.40;82.60;;;;;;5154752;27;20043;-80
2021/04/04 01:51:21;;;;;;;13.10;2.22;;;7.40;82.10;;;;;;5154309;27;20081;-81
2021/04/04 01:53:49;;;;;;;10.82;2.30;;;7.40;82.30;;;;;;5154374;27;20531;-81
2021/04/04 01:56:15;;;;;;;9.90;2.50;;;7.40;82.50;;;;;;5154556;27;20490;-81
2021/04/04 01:58:42;;;;;;;12.60;2.30;;;7.40;82.60;;;;;;5153617;27;20477;-80
2021/04/04 02:01:11;;;;;;;14.23;2.20;;;7.40;83.10;;;;;;5154730;27;20137;-80
2021/04/04 02:03:37;;;;;;;9.63;1.90;;;7.40;83.20;;;;;;5153878;27;20081;-80
2021/04/04 02:06:04;;;;;;;14.35;2.53;;;7.40;83.30;;;;;;5153237;27;20074;-81
2021/04/04 02:08:30;;;;;;;9.45;2.00;;;7.40;83.20;;;;;;5154644;27;20481;-80
2021/04/04 02:10:58;;;;;;;11.63;2.50;;;7.40;83.40;;;;;;5153178;27;20141;-80
2021/04/04 02:13:26;;;;;;;12.95;2.17;;;7.40;83.80;;;;;;5154707;27;20039;-80
2021/04/04 02:15:56;;;;;;;10.27;1.80;;;7.40;84.40;;;;;;5153796;27;20133;-80
2021/04/04 02:18:22;;;;;;;8.07;1.75;;;7.40;84.50;;;;;;5152933;27;20554;-80
2021/04/04 02:20:51;;;;;;;8.93;1.80;;;7.40;84.50;;;;;;5153774;27;20047;-81
2021/04/04 02:23:17;;;;;;;8.75;2.10;;;7.40;84.60;;;;;;5154076;27;20042;-81
2021/04/04 02:25:43;;;;;;;12.48;2.00;;;7.40;84.10;;;;;;5153103;27;20042;-80
2021/04/04 02:28:09;;;;;;;9.75;1.70;;;7.40;84.20;;;;;;5154462;27;20095;-80
2021/04/04 02:30:35;;;;;;;11.85;1.98;;;7.40;84.50;;;;;;5154113;27;20498;-79
2021/04/04 02:33:20;;;;;;;8.48;1.60;;;7.40;84.00;;;;;;5153299;27;20961;-81
2021/04/04 02:35:52;;;;;;;11.35;2.05;;;7.40;83.70;;;;;;5153841;27;20075;-81
2021/04/04 02:39:11;;;;;;;12.75;2.28;;;7.40;83.90;;;;;;5153937;27;20096;-80
2021/04/04 02:41:37;;;;;;;9.82;1.80;;;7.40;83.50;;;;;;5050338;28;20437;-80
2021/04/04 02:44:05;;;;;;;9.27;1.70;;;7.40;83.80;;;;;;5145492;27;20095;-80
2021/04/04 02:46:31;;;;;;;11.82;2.13;;;7.40;83.50;;;;;;5153508;27;20053;-80
2021/04/04 02:49:00;;;;;;;8.48;1.70;;;7.30;83.80;;;;;;5153934;27;20046;-80
2021/04/04 02:51:42;;;;;;;10.88;2.05;;;7.40;84.00;;;;;;5153344;27;20486;-80
2021/04/04 02:54:10;;;;;;;10.10;1.80;;;7.40;83.90;;;;;;5152597;27;20505;-80
2021/04/04 02:56:39;;;;;;;9.60;1.83;;;7.40;84.40;;;;;;5154021;27;20082;-80
2021/04/04 02:59:13;;;;;;;9.63;1.73;;;7.30;84.00;;;;;;5153259;27;20658;-80
2021/04/04 03:01:40;;;;;;;7.90;1.80;;;7.30;84.00;;;;;;5136957;27;20050;-81
2021/04/04 03:04:07;;;;;;;9.30;1.65;;;7.30;83.90;;;;;;5150918;27;20043;-79
2021/04/04 03:06:42;;;;;;;9.35;1.95;;;7.30;84.50;;;;;;5140776;27;20542;-79
2021/04/04 03:09:13;;;;;;;9.50;1.63;;;7.30;85.00;;;;;;5140828;27;20043;-79
2021/04/04 03:11:40;;;;;;;8.13;1.60;;;7.30;84.20;;;;;;5141875;27;20126;-79
2021/04/04 03:14:07;;;;;;;11.15;1.75;;;7.30;84.00;;;;;;5141245;27;20035;-79
2021/04/04 03:16:34;;;;;;;9.40;1.83;;;7.30;84.40;;;;;;5141573;27;20038;-80
2021/04/04 03:19:03;;;;;;;9.13;1.60;;;7.30;84.80;;;;;;5143167;27;20050;-80
2021/04/04 03:21:34;;;;;;;7.97;1.80;;;7.30;84.50;;;;;;5142489;27;20065;-80
2021/04/04 03:24:01;;;;;;;7.93;1.70;;;7.30;84.40;;;;;;5141668;27;20053;-80
2021/04/04 03:26:28;;;;;;;8.35;1.65;;;7.30;85.00;;;;;;5143642;27;20490;-80
2021/04/04 03:28:54;;;;;;;15.38;2.03;;;7.30;84.70;;;;;;5137344;27;20039;-80
2021/04/04 03:31:20;;;;;;;10.02;1.80;;;7.30;84.50;;;;;;5141861;27;20047;-80
2021/04/04 03:33:47;;;;;;;8.85;1.70;;;7.30;84.90;;;;;;5139459;27;20051;-81
2021/04/04 03:36:20;;;;;;;10.27;2.03;;;7.30;84.70;;;;;;5142277;27;20431;-79
2021/04/04 03:38:50;;;;;;;8.65;1.80;;;7.30;85.00;;;;;;5145851;27;20043;-80
2021/04/04 03:41:16;;;;;;;11.00;2.05;;;7.30;85.20;;;;;;5154377;27;20133;-80
2021/04/04 03:43:47;;;;;;;6.53;1.38;;;7.30;84.80;;;;;;5156245;27;20046;-80
2021/04/04 03:46:15;;;;;;;10.27;2.00;;;7.30;84.40;;;;;;5157379;27;20058;-81
2021/04/04 03:48:45;;;;;;;10.80;1.95;;;7.30;84.20;;;;;;5157190;27;20125;-81
2021/04/04 03:51:11;;;;;;;10.52;1.88;;;7.30;84.70;;;;;;5156405;27;20107;-81
2021/04/04 03:53:43;;;;;;;7.75;1.63;;;7.30;84.60;;;;;;5157579;27;20402;-81
2021/04/04 03:56:14;;;;;;;7.15;1.50;;;7.30;84.90;;;;;;5157465;27;20043;-81
2021/04/04 03:58:41;;;;;;;8.15;1.63;;;7.30;85.30;;;;;;5156480;27;20047;-80
2021/04/04 04:01:09;;;;;;;6.80;1.67;;;7.30;85.30;;;;;;5156974;27;20042;-81
2021/04/04 04:03:37;;;;;;;7.05;1.77;;;7.30;85.30;;;;;;5156417;27;20058;-81
2021/04/04 04:06:04;;;;;;;6.70;1.60;;;7.20;85.20;;;;;;5156373;27;20525;-80
2021/04/04 04:08:30;;;;;;;11.35;2.05;;;7.20;85.60;;;;;;5156699;27;20039;-80
2021/04/04 04:10:57;;;;;;;6.93;1.58;;;7.30;85.80;;;;;;5135832;27;20043;-80
2021/04/04 04:13:23;;;;;;;7.50;1.65;;;7.20;85.60;;;;;;5136020;27;20099;-81
2021/04/04 04:15:50;;;;;;;9.18;2.38;;;7.20;85.20;;;;;;5135658;27;20051;-81
2021/04/04 04:18:16;;;;;;;8.63;2.03;;;7.20;84.70;;;;;;5135576;27;20046;-81
2021/04/04 04:20:45;;;;;;;10.88;2.13;;;7.20;84.30;;;;;;5156694;27;20051;-81
2021/04/04 04:23:11;;;;;;;11.63;2.50;;;7.20;84.20;;;;;;5156676;27;20103;-80
2021/04/04 04:25:38;;;;;;;11.45;3.20;;;7.20;84.30;;;;;;5150813;27;20050;-80
2021/04/04 04:28:05;;;;;;;17.50;4.28;;;7.20;83.70;;;;;;5153338;27;20386;-81
2021/04/04 04:30:31;;;;;;;10.55;2.80;;;7.10;82.20;;;;;;5137956;27;20082;-81
2021/04/04 04:33:00;;;;;;;8.05;2.42;;;7.10;82.60;;;;;;5155136;27;20058;-80
2021/04/04 04:35:27;;;;;;;11.48;2.67;;;7.10;83.10;;;;;;5156485;27;20046;-80
2021/04/04 04:37:54;;;;;;;7.78;2.40;;;7.10;83.50;;;;;;5156079;27;20050;-80
2021/04/04 04:40:22;;;;;;;10.20;2.58;;;7.10;83.80;;;;;;5155007;27;20047;-81
2021/04/04 04:42:49;;;;;;;10.02;2.65;;;7.10;83.80;;;;;;5137255;27;20487;-80
2021/04/04 04:45:27;;;;;;;6.78;2.50;;;7.10;84.20;;;;;;5135684;27;20067;-80
2021/04/04 04:47:54;;;;;;;10.65;3.10;;;7.10;84.70;;;;;;5134295;27;20482;-81
2021/04/04 04:50:21;;;;;;;8.55;2.65;;;7.10;84.60;;;;;;5138269;27;20090;-80
2021/04/04 04:52:47;;;;;;;10.05;2.92;;;7.10;85.10;;;;;;5155089;27;20038;-81
2021/04/04 04:55:13;;;;;;;7.63;2.53;;;7.10;85.00;;;;;;5150797;27;20043;-80
2021/04/04 04:57:39;;;;;;;8.10;2.72;;;7.10;85.10;;;;;;5154980;27;20076;-81
2021/04/04 05:00:09;;;;;;;9.63;3.28;;;7.10;85.30;;;;;;5154612;27;20513;-80
2021/04/04 05:02:40;;;;;;;11.32;2.70;;;7.10;85.50;;;;;;5155599;27;20471;-81
2021/04/04 05:05:09;;;;;;;13.23;3.05;;;7.10;85.50;;;;;;5149449;27;20482;-80
2021/04/04 05:07:37;;;;;;;9.52;3.15;;;7.10;85.50;;;;;;5151949;27;20081;-81
2021/04/04 05:10:05;;;;;;;12.52;3.08;;;7.20;85.60;;;;;;5154752;27;20470;-81
2021/04/04 05:12:32;;;;;;;8.32;3.00;;;7.20;85.80;;;;;;5155299;27;20482;-81
2021/04/04 05:15:04;;;;;;;9.02;3.10;;;7.10;85.40;;;;;;5154447;27;20443;-81
2021/04/04 05:17:34;;;;;;;9.07;3.00;;;7.20;85.40;;;;;;5155697;27;20074;-81
2021/04/04 05:20:00;;;;;;;9.15;2.88;;;7.10;85.30;;;;;;5155249;27;20405;-81
2021/04/04 05:22:26;;;;;;;7.78;2.63;;;7.10;85.40;;;;;;5154522;27;20444;-81
2021/04/04 05:24:54;;;;;;;8.52;3.00;;;7.10;86.00;;;;;;5155053;27;20051;-81
2021/04/04 05:27:20;;;;;;;15.82;3.55;;;7.10;85.10;;;;;;5155757;27;20125;-81
2021/04/04 05:29:45;;;;;;;10.90;3.00;;;7.10;85.20;;;;;;5154504;27;20068;-81
2021/04/04 05:32:11;;;;;;;10.73;3.30;;;7.10;84.90;;;;;;5154987;27;20047;-81
2021/04/04 05:34:39;;;;;;;10.55;3.22;;;7.10;85.10;;;;;;5155272;27;20078;-81
2021/04/04 05:37:08;;;;;;;11.02;3.38;;;7.10;85.20;;;;;;5135603;27;20043;-81
2021/04/04 05:39:36;;;;;;;12.10;4.32;;;7.10;85.10;;;;;;5154886;27;20433;-81
2021/04/04 05:42:07;;;;;;;10.35;3.53;;;7.10;84.70;;;;;;5154223;27;20054;-81
2021/04/04 05:44:48;;;;;;;10.77;3.72;;;7.10;84.70;;;;;;5154972;27;20054;-81
2021/04/04 05:47:27;;;;;;;10.98;3.85;;;7.10;84.50;;;;;;5155120;27;20050;-81
2021/04/04 05:50:14;;;;;;;9.48;3.70;;;7.10;85.00;;;;;;5153921;27;20061;-81
2021/04/04 05:53:02;;;;;;;12.52;4.10;;;7.10;84.40;;;;;;5154878;27;20042;-81
2021/04/04 05:55:49;;;;;;;14.13;4.40;;;7.00;84.30;;;;;;5154841;27;20049;-81
2021/04/04 05:58:29;;;;;;;12.73;4.10;;;7.00;84.20;;;;;;5135841;27;20053;-81
2021/04/04 06:00:57;;;;;;;8.48;3.35;;;7.00;84.00;;;;;;5153938;27;20042;-80
2021/04/04 06:03:58;;;;;;;11.63;4.43;;;7.00;84.00;;;;;;5154059;27;20933;-81
2021/04/04 06:06:41;;;;;;;12.00;4.60;;;7.00;83.60;;;;;;5067346;27;20113;-81
2021/04/04 06:09:42;;;;;;;12.75;5.20;;;7.00;83.70;;;;;;5154624;27;20087;-81
2021/04/04 06:12:15;;;;;;;10.90;4.97;;;7.00;83.30;;;;;;5112456;27;20372;-81
2021/04/04 06:14:52;;;;;;;10.63;5.03;;;7.00;83.70;;;;;;5168180;27;20042;-80
2021/04/04 06:17:44;;;;;;;11.27;4.60;;;7.00;83.80;;;;;;5158840;27;20095;-80
2021/04/04 06:20:32;;;;;;;14.45;5.47;;;7.00;84.00;;;;;;5145340;27;20133;-81
2021/04/04 06:23:13;;;;;;;14.38;6.10;;;7.00;84.40;;;;;;5133467;27;20082;-81
2021/04/04 06:25:53;;;;;;;13.68;4.82;;;7.00;84.10;;;;;;5133092;27;20047;-80
2021/04/04 06:28:56;;;;;;;12.63;4.97;;;7.00;84.60;;;;;;5133926;27;20051;-81
2021/04/04 06:31:32;;;;;;;12.63;5.13;;;7.00;84.90;;;;;;5170372;27;20171;-81
2021/04/04 06:34:29;;;;;;;13.32;6.10;;;7.10;85.00;;;;;;5138684;27;20054;-80
2021/04/04 06:37:22;;;;;;;14.63;6.25;;;7.00;84.00;;;;;;5145098;27;20494;-81
2021/04/04 06:40:06;;;;;;;15.48;5.55;;;7.00;83.50;;;;;;5150631;27;20053;-81
2021/04/04 06:42:50;;;;;;;15.57;6.20;;;7.00;83.50;;;;;;5149179;27;20047;-80
2021/04/04 06:45:27;;;;;;;14.50;5.78;;;7.00;83.20;;;;;;5144612;27;20478;-80
2021/04/04 06:48:23;;;;;;;9.52;4.85;;;7.00;83.30;;;;;;5150505;27;20047;-80
2021/04/04 06:51:13;;;;;;;16.48;5.85;;;7.00;83.70;;;;;;5144770;27;20051;-81
2021/04/04 06:54:05;;;;;;;15.25;6.50;;;7.00;83.50;;;;;;5153110;27;20054;-80
2021/04/04 06:56:47;;;;;;;18.67;6.70;;;7.00;83.40;;;;;;5140241;27;20051;-81
2021/04/04 06:59:29;;;;;;;13.07;6.18;;;7.00;82.90;;;;;;5133589;28;20043;-82
2021/04/04 07:02:02;;;;;;;12.52;5.53;;;7.00;82.90;;;;;;5152272;27;20497;-80
2021/04/04 07:04:30;;;;;;;15.40;6.65;;;7.00;83.10;;;;;;5151678;27;20047;-81
2021/04/04 07:07:24;;;;;;;16.35;6.45;;;6.90;82.70;;;;;;5153079;27;20070;-82
2021/04/04 07:10:23;;;;;;;16.35;7.13;;;6.90;82.20;;;;;;5153370;27;20042;-82
2021/04/04 07:13:18;;;;;;;17.90;7.38;;;6.90;82.50;;;;;;5150982;27;20053;-80
2021/04/04 07:16:08;;;;;;;19.38;7.88;;;6.90;82.00;;;;;;5063034;27;20136;-80
2021/04/04 07:18:45;;;;;;;17.00;6.82;;;6.90;81.90;;;;;;5160025;27;20058;-80
2021/04/04 07:21:30;;;;;;;17.95;7.72;;;6.90;82.20;;;;;;5155702;27;20125;-80
2021/04/04 07:24:14;;;;;;;17.23;7.70;;;6.90;81.70;;;;;;5136962;27;20050;-82
2021/04/04 07:27:02;;;;;;;20.73;8.20;;;6.90;81.00;;;;;;5143336;27;20051;-81
2021/04/04 07:29:46;;;;;;;17.90;7.80;;;6.90;80.90;;;;;;5148902;27;20482;-79
2021/04/04 07:32:25;;;;;;;20.20;7.75;;;6.90;81.10;;;;;;5158038;27;20051;-81
2021/04/04 07:35:18;;;;;;;18.52;7.45;;;6.90;81.50;;;;;;5156201;27;20057;-80
2021/04/04 07:37:49;;;;;;;18.60;7.30;;;6.90;81.60;;;;;;5157280;27;20043;-81
2021/04/04 07:40:30;;;;;;;17.50;7.75;;;6.90;81.70;;;;;;5157503;27;20481;-81
2021/04/04 07:43:09;;;;;;;22.25;8.68;;;6.90;81.50;;;;;;5156441;27;20046;-81
2021/04/04 07:46:01;;;;;;;16.10;7.22;;;6.90;80.80;;;;;;5157511;27;20060;-81
2021/04/04 07:48:43;;;;;;;20.65;8.00;;;6.90;81.10;;;;;;5156652;27;20046;-81
2021/04/04 07:51:28;;;;;;;18.25;7.80;;;6.90;81.10;;;;;;5163398;27;20050;-81
2021/04/04 07:54:14;;;;;;;19.48;8.57;;;6.90;81.10;;;;;;5160504;27;20073;-81
2021/04/04 07:56:59;;;;;;;16.80;7.45;;;6.90;82.20;;;;;;5160861;27;20051;-79
2021/04/04 07:59:47;;;;;;;21.67;8.10;;;7.00;81.30;;;;;;5157466;27;20045;-79
2021/04/04 08:02:43;;;;;;;20.02;7.57;;;7.00;81.10;;;;;;5157134;27;20073;-80
2021/04/04 08:05:11;;;;;;;19.85;7.97;;;7.00;80.80;;;;;;5157430;27;20062;-81
2021/04/04 08:07:43;;;;;;;19.58;8.15;;;7.00;80.90;;;;;;5156600;27;20039;-81
2021/04/04 08:10:12;;;;;;;16.60;7.78;;;7.00;80.70;;;;;;5144989;27;20046;-81
2021/04/04 08:12:54;;;;;;;17.83;7.32;;;7.00;80.60;;;;;;5156581;27;20047;-82
2021/04/04 08:15:29;;;;;;;17.88;7.72;;;7.00;80.70;;;;;;5156260;27;20047;-80
2021/04/04 08:17:55;;;;;;;24.90;8.90;;;7.00;80.90;;;;;;5155678;27;20125;-80
2021/04/04 08:20:41;;;;;;;18.50;7.63;;;7.00;80.70;;;;;;5147167;27;20402;-81
2021/04/04 08:23:17;;;;;;;18.65;8.13;;;7.00;80.80;;;;;;5147082;27;20440;-80
2021/04/04 08:25:50;;;;;;;20.20;8.30;;;7.10;81.10;;;;;;5154872;27;20410;-81
2021/04/04 08:28:31;;;;;;;16.17;7.53;;;7.00;80.70;;;;;;5177532;27;20050;-81
2021/04/04 08:31:09;;;;;;;18.52;8.63;;;7.10;80.80;;;;;;5161570;27;20058;-81
2021/04/04 08:33:45;;;;;;;20.15;7.80;;;7.10;80.80;;;;;;5161521;27;20050;-81
2021/04/04 08:36:17;;;;;;;18.40;8.40;;;7.10;81.40;;;;;;5145256;27;20047;-80
2021/04/04 08:38:44;;;;;;;25.55;7.85;;;7.20;81.10;;;;;;5154705;27;20050;-80
2021/04/04 08:41:13;;;;;;;21.95;8.77;;;7.20;80.80;;;;;;5147356;27;20054;-80
2021/04/04 08:43:44;;;;;;;22.65;9.05;;;7.20;80.30;;;;;;5142453;27;20446;-80
2021/04/04 08:46:38;;;;;;;23.48;8.80;;;7.20;80.20;;;;;;5155234;27;20144;-81
2021/04/04 08:49:03;;;;;;;24.90;8.63;;;7.20;79.80;;;;;;5160219;27;20501;-80
2021/04/04 08:51:33;;;;;;;22.52;9.02;;;7.20;79.80;;;;;;5156409;27;20558;-80
2021/04/04 08:54:00;;;;;;;20.25;8.73;;;7.20;79.70;;;;;;5165349;27;20448;-80
2021/04/04 08:56:27;;;;;;;21.13;7.88;;;7.20;79.80;;;;;;5166385;27;20421;-82
2021/04/04 08:58:55;;;;;;;24.00;8.70;;;7.20;80.00;;;;;;5154245;27;20103;-83
2021/04/04 09:01:35;;;;;;;24.63;9.20;;;7.20;79.80;;;;;;5155012;27;20090;-82
2021/04/04 09:04:04;;;;;;;22.20;9.23;;;7.30;79.80;;;;;;5164207;27;20542;-82
2021/04/04 09:06:37;;;;;;;26.25;9.23;;;7.30;79.80;;;;;;5146904;27;20039;-82
2021/04/04 09:09:14;;;;;;;26.05;9.20;;;7.30;80.00;;;;;;5154161;27;20451;-82
2021/04/04 09:11:41;;;;;;;21.40;8.32;;;7.30;80.00;;;;;;5155208;27;20050;-82
2021/04/04 09:14:07;;;;;;;24.25;8.07;;;7.30;80.10;;;;;;5146669;27;20047;-83
2021/04/04 09:16:33;;;;;;;19.67;8.10;;;7.30;80.00;;;;;;5150180;27;20125;-83
2021/04/04 09:18:58;;;;;;;22.10;8.13;;;7.30;80.10;;;;;;5166067;27;20046;-82
2021/04/04 09:21:25;;;;;;;19.75;7.15;;;7.40;80.20;;;;;;5156047;27;20042;-82
2021/04/04 09:23:54;;;;;;;16.50;6.90;;;7.40;79.80;;;;;;5156477;27;20044;-82
2021/04/04 09:26:22;;;;;;;16.25;6.82;;;7.40;79.60;;;;;;5161760;27;20046;-82
2021/04/04 09:28:50;;;;;;;15.27;6.00;;;7.40;79.60;;;;;;5152537;27;20111;-82
2021/04/04 09:31:30;;;;;;;19.38;6.03;;;7.40;79.50;;;;;;5145735;27;20046;-82
2021/04/04 09:34:04;;;;;;;21.75;5.50;;;7.50;79.30;;;;;;5171388;27;20125;-82
2021/04/04 09:36:46;;;;;;;20.98;5.90;;;7.40;79.20;;;;;;5164661;27;20129;-83
2021/04/04 09:39:22;;;;;;;18.60;5.20;;;7.50;79.20;;;;;;5176050;27;20443;-82
2021/04/04 09:41:49;;;;;;;15.45;5.53;;;7.50;79.40;;;;;;5144513;27;20119;-82
2021/04/04 09:44:15;;;;;;;16.75;5.25;;;7.50;79.50;;;;;;5148135;27;20567;-82
2021/04/04 09:46:55;;;;;;;15.43;4.57;;;7.50;79.30;;;;;;5144208;27;20050;-81
2021/04/04 09:49:43;;;;;;;15.88;4.25;;;7.50;79.30;;;;;;5157935;27;20129;-82
2021/04/04 09:52:36;;;;;;;12.77;3.85;;;7.60;79.10;;;;;;5153917;27;20046;-81
2021/04/04 09:55:07;;;;;;;18.95;3.95;;;7.60;78.90;;;;;;5124185;27;20135;-82
2021/04/04 09:57:39;;;;;;;14.48;3.53;;;7.60;79.30;;;;;;5126584;27;20156;-83
2021/04/04 10:00:30;;;;;;;18.92;3.60;;;7.70;79.20;;;;;;5141628;27;20054;-82
2021/04/04 10:02:58;;;;;;;16.50;2.92;;;7.70;78.90;;;;;;5163790;27;20042;-82
2021/04/04 10:05:37;;;;;;;11.32;3.00;;;7.70;78.40;;;;;;5154107;27;20047;-82
2021/04/04 10:08:09;;;;;;;11.40;3.33;;;7.70;78.10;;;;;;5153726;27;20050;-82
2021/04/04 10:10:36;;;;;;;9.85;2.90;;;7.80;78.10;;;;;;5160632;27;20049;-82
2021/04/04 10:13:03;;;;;;;16.92;3.45;;;7.80;78.30;;;;;;5153994;27;20179;-82
2021/04/04 10:15:50;;;;;;;13.73;3.38;;;7.80;78.40;;;;;;5154356;27;20046;-82
2021/04/04 10:18:18;;;;;;;16.05;3.50;;;7.80;78.10;;;;;;5156410;27;20038;-82
2021/04/04 10:20:51;;;;;;;17.48;3.65;;;7.80;78.40;;;;;;5152712;27;20050;-82
2021/04/04 10:23:26;;;;;;;16.23;3.90;;;7.90;78.20;;;;;;5154750;27;20398;-82
2021/04/04 10:25:58;;;;;;;18.77;3.50;;;7.90;78.10;;;;;;5174654;27;20468;-82
2021/04/04 10:28:24;;;;;;;14.23;3.40;;;7.90;78.20;;;;;;5159154;27;20054;-82
2021/04/04 10:30:56;;;;;;;20.38;3.95;;;7.90;78.50;;;;;;5141175;27;20054;-81
2021/04/04 10:33:26;;;;;;;17.38;3.15;;;7.90;78.50;;;;;;5147770;27;20047;-82
2021/04/04 10:35:53;;;;;;;16.55;3.85;;;8.00;78.50;;;;;;5140740;27;20142;-81
2021/04/04 10:38:19;;;;;;;13.95;3.45;;;8.00;78.90;;;;;;5152931;27;20043;-82
2021/04/04 10:40:59;;;;;;;16.95;3.67;;;8.00;79.00;;;;;;5154303;27;20050;-82
2021/04/04 10:43:41;;;;;;;13.52;3.30;;;8.00;78.90;;;;;;5152414;27;20035;-81
2021/04/04 10:46:08;;;;;;;11.85;3.55;;;8.00;78.80;;;;;;5157861;27;20502;-82
2021/04/04 10:48:42;;;;;;;15.77;3.33;;;8.00;78.80;;;;;;5161869;27;20057;-82
2021/04/04 10:51:13;;;;;;;15.45;3.53;;;8.00;78.80;;;;;;5157475;27;20046;-82
2021/04/04 10:53:39;;;;;;;12.43;3.00;;;8.00;78.70;;;;;;5157143;27;20050;-83
2021/04/04 10:56:06;;;;;;;13.55;3.10;;;8.10;78.40;;;;;;5158026;27;20107;-82
2021/04/04 10:58:31;;;;;;;16.52;3.55;;;8.10;78.40;;;;;;5157837;27;20138;-82
2021/04/04 11:00:59;;;;;;;14.10;2.75;;;8.10;78.10;;;;;;5165489;27;20117;-82
2021/04/04 11:03:26;;;;;;;14.30;3.40;;;8.20;77.70;;;;;;5146255;27;20386;-82
2021/04/04 11:05:51;;;;;;;14.00;3.25;;;8.20;77.80;;;;;;5153409;27;20080;-82
2021/04/04 11:08:17;;;;;;;15.30;3.05;;;8.20;77.50;;;;;;5138384;27;20047;-82
2021/04/04 11:10:44;;;;;;;11.50;2.85;;;8.20;77.30;;;;;;5141515;27;20349;-82
2021/04/04 11:13:13;;;;;;;14.18;3.13;;;8.30;77.40;;;;;;5167577;27;20050;-82
2021/04/04 11:15:41;;;;;;;13.25;3.03;;;8.30;77.50;;;;;;5161199;27;20396;-81
2021/04/04 11:18:32;;;;;;;12.43;3.35;;;8.40;77.50;;;;;;5164484;27;20065;-82
2021/04/04 11:21:03;;;;;;;18.67;4.13;;;8.40;77.30;;;;;;5161229;27;20557;-81
2021/04/04 11:23:29;;;;;;;17.50;3.70;;;8.40;77.00;;;;;;5163584;27;20110;-82
2021/04/04 11:25:55;;;;;;;14.23;3.75;;;8.40;77.70;;;;;;5147845;27;20054;-80
2021/04/04 11:28:25;;;;;;;17.83;3.83;;;8.40;77.10;;;;;;5156532;27;20046;-81
2021/04/04 11:30:57;;;;;;;23.95;4.15;;;8.40;77.20;;;;;;5159627;27;20175;-81
2021/04/04 11:33:25;;;;;;;16.67;3.88;;;8.40;77.50;;;;;;5169452;27;20039;-81
2021/04/04 11:36:09;;;;;;;14.75;3.42;;;8.40;77.70;;;;;;5162997;27;20183;-82
2021/04/04 11:38:40;;;;;;;14.27;3.40;;;8.30;77.40;;;;;;5156580;27;20050;-82
2021/04/04 11:41:39;;;;;;;14.07;3.47;;;8.30;77.60;;;;;;5157186;27;20115;-79
2021/04/04 11:44:37;;;;;;;17.83;3.13;;;8.30;77.80;;;;;;5156066;27;20045;-81
2021/04/04 11:47:22;;;;;;;13.45;3.35;;;8.30;77.80;;;;;;5149225;27;20050;-80
2021/04/04 11:49:50;;;;;;;16.15;2.97;;;8.30;77.80;;;;;;5158910;27;20476;-79
2021/04/04 11:52:15;;;;;;;18.60;2.85;;;8.40;78.00;;;;;;5158552;27;20451;-79
2021/04/04 11:54:44;;;;;;;19.45;3.95;;;8.40;77.80;;;;;;5164704;27;20094;-79
2021/04/04 11:57:20;;;;;;;20.00;3.15;;;8.40;77.70;;;;;;5170699;27;20046;-79
2021/04/04 11:59:55;;;;;;;16.80;2.90;;;8.40;77.50;;;;;;5175727;27;20541;-80
2021/04/04 12:02:25;;;;;;;18.83;3.25;;;8.40;77.30;;;;;;5152361;27;20069;-80
2021/04/04 12:05:11;;;;;;;15.73;3.40;;;8.40;77.30;;;;;;5171135;27;20053;-82
2021/04/04 12:07:44;;;;;;;21.33;4.03;;;8.50;77.10;;;;;;5176375;27;20046;-80
2021/04/04 12:10:12;;;;;;;15.77;3.40;;;8.40;77.00;;;;;;5176632;27;20046;-80
2021/04/04 12:12:38;;;;;;;14.60;2.90;;;8.50;76.80;;;;;;5170597;27;20047;-79
2021/04/04 12:15:05;;;;;;;18.15;3.25;;;8.50;76.50;;;;;;5156174;27;20550;-79
2021/04/04 12:17:32;;;;;;;15.85;3.10;;;8.50;76.30;;;;;;5155951;27;20043;-79
2021/04/04 12:19:59;;;;;;;18.42;3.20;;;8.50;75.90;;;;;;5156224;27;20558;-80
2021/04/04 12:22:40;;;;;;;15.55;2.65;;;8.60;76.00;;;;;;5156424;27;20050;-78
2021/04/04 12:25:08;;;;;;;16.90;3.50;;;8.60;75.60;;;;;;5155546;27;20050;-79
2021/04/04 12:27:36;;;;;;;18.80;3.33;;;8.60;76.00;;;;;;5166745;27;20125;-79
2021/04/04 12:30:01;;;;;;;14.35;2.60;;;8.60;75.70;;;;;;5165012;27;20402;-80
2021/04/04 12:32:34;;;;;;;12.65;3.00;;;8.60;75.50;;;;;;5156980;27;20049;-80
2021/04/04 12:35:05;;;;;;;16.75;3.28;;;8.70;75.50;;;;;;5162609;27;20066;-79
2021/04/04 12:37:38;;;;;;;13.50;3.50;;;8.70;75.50;;;;;;5161859;27;20382;-80
2021/04/04 12:40:09;;;;;;;18.00;3.17;;;8.70;75.30;;;;;;5161815;27;20042;-79
2021/04/04 12:42:36;;;;;;;18.15;2.97;;;8.70;75.20;;;;;;5156273;27;20086;-79
2021/04/04 12:45:05;;;;;;;16.02;3.65;;;8.80;75.60;;;;;;5161947;27;20047;-78
2021/04/04 12:47:31;;;;;;;13.70;3.22;;;8.80;75.60;;;;;;5169778;27;20038;-78
2021/04/04 12:50:04;;;;;;;19.30;3.80;;;8.80;75.50;;;;;;5159153;27;20103;-79
2021/04/04 12:52:36;;;;;;;15.63;3.53;;;8.80;75.90;;;;;;5154672;27;20087;-78
2021/04/04 12:55:19;;;;;;;17.08;3.47;;;8.80;76.00;;;;;;5152209;27;20138;-78
2021/04/04 12:57:47;;;;;;;15.93;4.60;;;8.80;76.00;;;;;;5160885;27;20047;-78
2021/04/04 13:00:15;;;;;;;18.98;5.15;;;8.80;76.10;;;;;;5160350;27;20409;-78
2021/04/04 13:02:49;;;;;;;16.42;4.35;;;8.90;76.40;;;;;;5171623;27;20031;-79
2021/04/04 13:05:14;;;;;;;16.02;4.47;;;8.90;76.40;;;;;;5175800;27;20054;-79
2021/04/04 13:07:40;;;;;;;19.40;4.78;;;8.90;76.80;;;;;;5176781;27;20473;-78
2021/04/04 13:10:06;;;;;;;16.05;4.40;;;9.00;76.90;;;;;;5168637;27;20488;-78
2021/04/04 13:12:37;;;;;;;23.92;4.07;;;9.00;76.40;;;;;;5165924;27;20489;-78
2021/04/04 13:15:05;;;;;;;21.52;4.47;;;9.00;75.80;;;;;;5172366;27;20073;-78
2021/04/04 13:17:41;;;;;;;36.97;4.47;;;9.00;75.40;;;;;;5159662;27;20081;-78